Terminal Aerodrome Forecast
Issued by NWS Louisville, KY

Home | Current Version | Previous Version | Text Only | Print | Product List | Glossary On
Versions: 1 2 3 4 5 6 7 8 9 10 11 12 13 14 15 16 17 18 19
000
FTUS43 KLMK 211723
TAFSDF
TAF
KSDF 211723Z 2118/2224 35008KT P6SM FEW030 BKN070 OVC090
     FM220000 01009KT P6SM -SHRA SCT025 OVC050
     FM220600 03011KT 4SM -SHRA OVC015=

USA.gov is the U.S. government's official web portal to all federal, state and local government web resources and services.